createdAt,value
2023-02-07T00:01:47.667Z,24.77
2023-02-07T00:04:16.154Z,25.73
2023-02-07T00:06:44.217Z,23.17
2023-02-07T00:09:13.025Z,26.80
2023-02-07T00:11:43.282Z,25.67
2023-02-07T00:14:13.463Z,27.67
2023-02-07T00:16:42.367Z,28.03
2023-02-07T00:19:11.458Z,31.57
2023-02-07T00:21:39.673Z,30.87
2023-02-07T00:24:08.445Z,32.83
2023-02-07T00:26:36.523Z,33.10
2023-02-07T00:29:06.192Z,30.43
2023-02-07T00:31:36.965Z,28.33
2023-02-07T00:34:06.770Z,32.27
2023-02-07T00:36:37.164Z,27.00
2023-02-07T00:39:07.987Z,23.03
2023-02-07T00:41:37.310Z,32.33
2023-02-07T00:44:07.872Z,27.87
2023-02-07T00:46:37.944Z,21.20
2023-02-07T00:49:09.290Z,24.90
2023-02-07T00:51:39.628Z,29.17
2023-02-07T00:54:08.708Z,28.60
2023-02-07T00:56:37.397Z,25.57
2023-02-07T00:59:05.438Z,28.57
2023-02-07T01:01:34.627Z,29.00
2023-02-07T01:04:04.028Z,27.03
2023-02-07T01:06:34.099Z,31.10
2023-02-07T01:09:03.395Z,24.93
2023-02-07T01:11:34.870Z,31.27
2023-02-07T01:14:03.989Z,24.20
2023-02-07T01:16:36.463Z,30.70
2023-02-07T01:19:08.285Z,27.50
2023-02-07T01:21:36.946Z,25.40
2023-02-07T01:24:07.297Z,27.23
2023-02-07T01:26:36.409Z,23.93
2023-02-07T01:29:05.780Z,22.43
2023-02-07T01:31:34.121Z,20.47
2023-02-07T01:34:05.421Z,23.80
2023-02-07T01:36:35.243Z,25.83
2023-02-07T01:39:04.965Z,23.53
2023-02-07T01:41:39.617Z,20.83
2023-02-07T01:44:09.470Z,20.97
2023-02-07T01:46:50.394Z,20.97
2023-02-07T01:49:22.534Z,23.03
2023-02-07T01:51:57.628Z,19.87
2023-02-07T01:54:33.330Z,22.77
2023-02-07T01:57:08.222Z,21.80
2023-02-07T01:59:43.769Z,20.90
2023-02-07T02:02:15.936Z,26.20
2023-02-07T02:04:44.711Z,17.37
2023-02-07T02:07:17.355Z,20.67
2023-02-07T02:09:46.813Z,20.50
2023-02-07T02:12:40.939Z,13.60
2023-02-07T02:15:20.810Z,25.00
2023-02-07T02:18:00.509Z,18.43
2023-02-07T02:21:20.368Z,18.13
2023-02-07T02:24:11.954Z,16.67
2023-02-07T02:26:54.105Z,16.97
2023-02-07T02:29:46.258Z,16.03
2023-02-07T02:32:53.781Z,16.27
2023-02-07T02:35:28.872Z,17.80
2023-02-07T02:38:04.520Z,20.50
2023-02-07T02:40:41.304Z,16.40
2023-02-07T02:43:16.458Z,19.73
2023-02-07T02:45:48.846Z,22.20
2023-02-07T02:48:19.196Z,19.13
2023-02-07T02:50:49.022Z,17.07
2023-02-07T02:53:20.013Z,22.30
2023-02-07T02:56:12.181Z,16.47
2023-02-07T02:59:02.879Z,19.30
2023-02-07T03:01:44.660Z,15.80
2023-02-07T03:04:34.716Z,18.43
2023-02-07T03:07:13.215Z,22.60
2023-02-07T03:09:51.330Z,25.30
2023-02-07T03:12:25.381Z,22.30
2023-02-07T03:15:03.702Z,23.60
2023-02-07T03:17:46.412Z,24.17
2023-02-07T03:20:22.151Z,24.57
2023-02-07T03:22:54.336Z,19.03
2023-02-07T03:25:25.608Z,19.83
2023-02-07T03:27:55.945Z,22.77
2023-02-07T03:30:33.559Z,20.00
2023-02-07T03:33:10.253Z,20.80
2023-02-07T03:35:53.218Z,25.43
2023-02-07T03:38:22.540Z,22.80
2023-02-07T03:40:55.728Z,15.40
2023-02-07T03:43:27.981Z,20.47
2023-02-07T03:45:56.947Z,15.53
2023-02-07T03:48:26.103Z,16.80
2023-02-07T03:50:56.744Z,16.90
2023-02-07T03:53:25.375Z,16.37
2023-02-07T03:55:53.471Z,15.87
2023-02-07T03:58:23.377Z,19.50
2023-02-07T04:00:53.417Z,18.90
2023-02-07T04:03:21.455Z,19.63
2023-02-07T04:05:50.000Z,18.77
2023-02-07T04:08:22.411Z,17.67
2023-02-07T04:10:58.545Z,17.50
2023-02-07T04:13:27.465Z,19.03
2023-02-07T04:15:55.968Z,16.23
2023-02-07T04:18:24.258Z,23.20
2023-02-07T04:20:53.448Z,17.63
2023-02-07T04:23:23.821Z,13.90
2023-02-07T04:25:52.128Z,19.10
2023-02-07T04:28:20.709Z,19.50
2023-02-07T04:30:48.963Z,18.30
2023-02-07T04:33:17.673Z,15.17
2023-02-07T04:35:45.839Z,17.13
2023-02-07T04:38:17.422Z,18.93
2023-02-07T04:40:46.960Z,17.83
2023-02-07T04:43:15.446Z,14.93
2023-02-07T04:45:44.608Z,24.27
2023-02-07T04:48:12.843Z,12.50
2023-02-07T04:50:40.810Z,21.67
2023-02-07T04:53:11.584Z,18.97
2023-02-07T04:55:42.420Z,21.90
2023-02-07T04:58:11.823Z,15.03
2023-02-07T05:00:40.269Z,18.50
2023-02-07T05:03:08.805Z,19.37
2023-02-07T05:05:40.641Z,21.40
2023-02-07T05:08:09.560Z,18.40
2023-02-07T05:10:38.745Z,17.90
2023-02-07T05:13:07.865Z,21.87
2023-02-07T05:15:37.703Z,21.90
2023-02-07T05:18:07.971Z,18.63
2023-02-07T05:20:36.309Z,19.40
2023-02-07T05:23:04.450Z,16.63
2023-02-07T05:25:33.005Z,18.20
2023-02-07T05:28:01.191Z,16.77
2023-02-07T05:30:29.672Z,20.37
2023-02-07T05:33:08.122Z,22.50
2023-02-07T05:35:39.350Z,19.40
2023-02-07T05:38:10.199Z,15.87
2023-02-07T05:40:39.981Z,15.90
2023-02-07T05:43:12.031Z,13.10
2023-02-07T05:45:40.911Z,11.20
2023-02-07T05:48:11.459Z,16.20
2023-02-07T05:50:41.069Z,16.30
2023-02-07T05:53:12.865Z,12.70
2023-02-07T05:56:03.584Z,19.10
2023-02-07T05:58:31.806Z,16.80
2023-02-07T06:00:59.837Z,16.10
2023-02-07T06:03:29.722Z,12.33
2023-02-07T06:05:57.832Z,17.53
2023-02-07T06:08:25.824Z,16.70
2023-02-07T06:10:56.444Z,15.83
2023-02-07T06:13:25.164Z,14.00
2023-02-07T06:15:53.496Z,11.50
2023-02-07T06:18:26.404Z,13.43
2023-02-07T06:20:56.208Z,19.60
2023-02-07T06:23:24.303Z,11.10
2023-02-07T06:25:53.059Z,16.10
2023-02-07T06:28:21.169Z,17.80
2023-02-07T06:30:52.242Z,12.83
2023-02-07T06:33:20.699Z,15.63
2023-02-07T06:35:48.717Z,13.70
2023-02-07T06:38:19.355Z,15.20
2023-02-07T06:40:47.987Z,13.80
2023-02-07T06:43:16.308Z,15.17
2023-02-07T06:45:44.490Z,13.13
2023-02-07T06:48:13.245Z,13.80
2023-02-07T06:50:42.257Z,12.50
2023-02-07T06:53:10.402Z,17.53
2023-02-07T06:55:41.467Z,14.77
2023-02-07T06:58:10.266Z,14.03
2023-02-07T07:00:38.318Z,10.07
2023-02-07T07:03:06.467Z,15.40
2023-02-07T07:05:35.465Z,13.90
2023-02-07T07:08:03.716Z,16.07
2023-02-07T07:10:32.204Z,12.13
2023-02-07T07:13:02.488Z,13.43
2023-02-07T07:15:32.480Z,11.20
2023-02-07T07:18:01.118Z,15.10
2023-02-07T07:20:29.290Z,11.40
2023-02-07T07:22:57.849Z,14.97
2023-02-07T07:25:33.256Z,13.93
2023-02-07T07:28:03.264Z,12.00
2023-02-07T07:30:31.481Z,10.27
2023-02-07T07:32:59.612Z,16.60
2023-02-07T07:35:29.905Z,16.60
2023-02-07T07:38:00.911Z,10.80
2023-02-07T07:40:29.913Z,13.63
2023-02-07T07:42:57.926Z,10.40
2023-02-07T07:45:37.284Z,11.90
2023-02-07T07:48:05.542Z,11.53
2023-02-07T07:50:33.547Z,14.33
2023-02-07T07:53:02.444Z,13.93
2023-02-07T07:55:31.507Z,13.73
2023-02-07T07:58:01.524Z,13.07
2023-02-07T08:00:29.583Z,13.57
2023-02-07T08:03:01.074Z,21.37
2023-02-07T08:05:29.875Z,14.40
2023-02-07T08:07:59.337Z,14.10
2023-02-07T08:10:27.424Z,16.73
2023-02-07T08:12:55.501Z,16.17
2023-02-07T08:15:23.504Z,14.97
2023-02-07T08:17:55.495Z,12.10
2023-02-07T08:20:25.354Z,20.27
2023-02-07T08:22:54.037Z,12.40
2023-02-07T08:25:22.107Z,14.10
2023-02-07T08:27:50.609Z,11.90
2023-02-07T08:30:19.981Z,12.23
2023-02-07T08:32:48.962Z,16.80
2023-02-07T08:35:17.036Z,9.67
2023-02-07T08:37:46.603Z,12.10
2023-02-07T08:40:15.034Z,20.20
2023-02-07T08:42:45.342Z,10.87
2023-02-07T08:45:16.333Z,12.10
2023-02-07T08:47:44.560Z,10.93
2023-02-07T08:50:13.960Z,10.73
2023-02-07T08:52:42.227Z,13.83
2023-02-07T08:55:12.701Z,9.57
2023-02-07T08:57:40.784Z,15.87
2023-02-07T09:00:10.465Z,10.53
2023-02-07T09:02:38.933Z,11.53
2023-02-07T09:05:07.773Z,14.30
2023-02-07T09:07:35.784Z,13.53
2023-02-07T09:10:07.538Z,11.63
2023-02-07T09:12:40.283Z,11.50
2023-02-07T09:15:09.206Z,11.73
2023-02-07T09:17:38.512Z,9.80
2023-02-07T09:20:08.640Z,14.50
2023-02-07T09:22:56.900Z,13.70
2023-02-07T09:25:26.141Z,13.13
2023-02-07T09:28:00.144Z,12.17
2023-02-07T09:30:28.239Z,13.10
2023-02-07T09:32:57.817Z,12.00
2023-02-07T09:35:26.321Z,11.60
2023-02-07T09:37:55.022Z,9.07
2023-02-07T09:40:27.053Z,15.00
2023-02-07T09:43:01.128Z,28.20
2023-02-07T09:45:37.169Z,20.13
2023-02-07T09:48:13.198Z,9.87
2023-02-07T09:50:47.585Z,10.27
2023-02-07T09:53:20.193Z,10.17
2023-02-07T09:55:51.644Z,6.80
2023-02-07T09:58:27.504Z,8.67
2023-02-07T10:01:02.511Z,6.60
2023-02-07T10:03:32.766Z,4.63
2023-02-07T10:06:17.531Z,4.30
2023-02-07T10:08:55.685Z,5.43
2023-02-07T10:11:35.122Z,4.03
2023-02-07T10:14:21.933Z,8.47
2023-02-07T10:17:04.677Z,5.80
2023-02-07T10:19:45.763Z,7.70
2023-02-07T10:22:27.398Z,8.23
2023-02-07T10:25:25.602Z,5.50
2023-02-07T10:28:05.153Z,7.20
2023-02-07T10:30:38.604Z,5.67
2023-02-07T10:33:16.566Z,4.50
2023-02-07T10:35:46.576Z,4.03
2023-02-07T10:38:24.954Z,4.47
2023-02-07T10:40:57.505Z,6.23
2023-02-07T10:43:30.605Z,4.03
2023-02-07T10:46:06.779Z,6.87
2023-02-07T10:48:38.582Z,4.40
2023-02-07T10:51:20.740Z,4.60
2023-02-07T10:53:55.546Z,6.40
2023-02-07T10:56:28.602Z,4.93
2023-02-07T10:58:58.415Z,8.60
2023-02-07T11:01:31.464Z,4.43
2023-02-07T11:03:59.864Z,3.50
2023-02-07T11:06:29.589Z,3.73
2023-02-07T11:09:21.117Z,6.20
2023-02-07T11:11:50.955Z,4.40
2023-02-07T11:14:26.792Z,3.97
2023-02-07T11:16:58.325Z,4.87
2023-02-07T11:19:29.568Z,6.50
2023-02-07T11:22:10.252Z,3.87
2023-02-07T11:24:39.174Z,3.83
2023-02-07T11:27:13.525Z,6.00
2023-02-07T11:29:51.181Z,5.00
2023-02-07T11:32:23.673Z,4.40
2023-02-07T11:34:57.609Z,4.57
2023-02-07T11:37:32.693Z,5.63
2023-02-07T11:40:23.495Z,6.90
2023-02-07T11:42:59.298Z,4.90
2023-02-07T11:45:30.000Z,8.50
2023-02-07T11:48:00.338Z,5.27
2023-02-07T11:50:33.502Z,4.67
2023-02-07T11:53:02.652Z,5.50
2023-02-07T11:55:36.811Z,6.80
2023-02-07T11:58:11.139Z,4.70
2023-02-07T12:00:41.596Z,4.83
2023-02-07T12:03:24.429Z,5.97
2023-02-07T12:05:56.972Z,9.40
2023-02-07T12:08:28.815Z,12.70
2023-02-07T12:11:01.095Z,7.07
2023-02-07T12:13:35.568Z,6.40
2023-02-07T12:16:08.314Z,6.23
2023-02-07T12:18:44.681Z,5.50
2023-02-07T12:21:20.977Z,6.73
2023-02-07T12:23:57.778Z,11.97
2023-02-07T12:26:29.423Z,13.40
2023-02-07T12:29:17.326Z,5.67
2023-02-07T12:31:52.732Z,5.90
2023-02-07T12:34:30.556Z,5.00
2023-02-07T12:37:05.457Z,7.33
2023-02-07T12:39:40.487Z,5.53
2023-02-07T12:42:26.110Z,5.20
2023-02-07T12:44:58.777Z,5.30
2023-02-07T12:47:40.753Z,5.77
2023-02-07T12:50:46.589Z,7.17
2023-02-07T12:53:53.615Z,4.97
2023-02-07T12:56:40.617Z,11.10
2023-02-07T12:59:20.897Z,5.13
2023-02-07T13:01:56.521Z,6.50
2023-02-07T13:04:49.675Z,7.53
2023-02-07T13:07:34.394Z,7.70
2023-02-07T13:10:19.692Z,5.50
2023-02-07T13:12:54.369Z,5.00
2023-02-07T13:15:33.777Z,6.27
2023-02-07T13:18:07.839Z,4.93
2023-02-07T13:20:50.533Z,5.20
2023-02-07T13:23:23.635Z,5.13
2023-02-07T13:25:58.248Z,6.20
2023-02-07T13:28:31.979Z,5.03
2023-02-07T13:31:01.297Z,4.50
2023-02-07T13:33:34.444Z,4.87
2023-02-07T13:36:12.288Z,5.60
2023-02-07T13:39:07.869Z,4.53
2023-02-07T13:41:47.021Z,6.03
2023-02-07T13:44:23.466Z,5.00
2023-02-07T13:47:31.032Z,5.80
2023-02-07T13:50:05.396Z,4.73
2023-02-07T13:52:40.521Z,5.77
2023-02-07T13:55:24.728Z,9.87
2023-02-07T13:58:11.465Z,5.23
2023-02-07T14:01:11.697Z,5.83
2023-02-07T14:03:39.831Z,8.97
2023-02-07T14:06:25.877Z,6.43
2023-02-07T14:09:02.665Z,5.43
2023-02-07T14:11:38.634Z,4.90
2023-02-07T14:14:15.060Z,5.20
2023-02-07T14:16:51.003Z,5.30
2023-02-07T14:19:50.453Z,5.30
2023-02-07T14:22:24.734Z,5.67
2023-02-07T14:25:21.700Z,5.47
2023-02-07T14:28:31.711Z,4.67
2023-02-07T14:31:14.966Z,7.10
2023-02-07T14:34:10.687Z,6.43
2023-02-07T14:36:39.487Z,6.90
2023-02-07T14:39:30.219Z,9.23
2023-02-07T14:42:13.725Z,5.37
2023-02-07T14:44:47.889Z,6.13
2023-02-07T14:47:24.692Z,5.97
2023-02-07T14:49:55.101Z,7.60
2023-02-07T14:52:28.248Z,6.13
2023-02-07T14:54:59.800Z,9.47
2023-02-07T14:57:38.172Z,6.43
2023-02-07T15:00:28.762Z,5.87
2023-02-07T15:02:58.759Z,6.23
2023-02-07T15:05:32.090Z,5.93
2023-02-07T15:08:10.841Z,6.90
2023-02-07T15:10:42.914Z,8.57
2023-02-07T15:13:23.165Z,5.87
2023-02-07T15:15:56.570Z,7.37
2023-02-07T15:18:28.601Z,6.23
2023-02-07T15:20:58.753Z,12.20
2023-02-07T15:23:32.424Z,7.37
2023-02-07T15:26:06.328Z,7.00
2023-02-07T15:28:34.960Z,10.50
2023-02-07T15:31:08.096Z,5.90
2023-02-07T15:33:42.942Z,7.43
2023-02-07T15:36:30.970Z,7.43
2023-02-07T15:39:04.755Z,5.27
2023-02-07T15:41:36.767Z,5.83
2023-02-07T15:44:07.846Z,5.20
2023-02-07T15:46:48.462Z,6.20
2023-02-07T15:49:28.605Z,10.10
2023-02-07T15:52:03.265Z,8.00
2023-02-07T15:54:40.956Z,6.30
2023-02-07T15:57:21.430Z,6.27
2023-02-07T15:59:52.273Z,5.70
2023-02-07T16:02:30.233Z,8.00
2023-02-07T16:04:58.815Z,5.00
2023-02-07T16:07:26.892Z,7.10
2023-02-07T16:09:55.794Z,5.53
2023-02-07T16:12:32.957Z,6.10
2023-02-07T16:15:04.195Z,6.63
2023-02-07T16:17:42.311Z,7.17
2023-02-07T16:20:16.381Z,7.10
2023-02-07T16:22:46.687Z,6.50
2023-02-07T16:25:19.164Z,8.23
2023-02-07T16:27:49.434Z,5.50
2023-02-07T16:30:22.554Z,8.90
2023-02-07T16:32:53.037Z,11.67
2023-02-07T16:35:24.290Z,5.30
2023-02-07T16:37:53.038Z,5.57
2023-02-07T16:40:23.126Z,60.80
2023-02-07T16:45:42.890Z,6.60
2023-02-07T16:48:16.588Z,5.33
2023-02-07T16:50:44.949Z,6.77
2023-02-07T16:53:12.951Z,6.07
2023-02-07T16:55:42.838Z,6.07
2023-02-07T16:58:22.162Z,9.63
2023-02-07T17:00:50.558Z,5.50
2023-02-07T17:03:20.027Z,8.00
2023-02-07T17:05:48.300Z,7.53
2023-02-07T17:08:20.843Z,7.60
2023-02-07T17:10:53.104Z,8.57
2023-02-07T17:13:21.260Z,7.37
2023-02-07T17:15:50.818Z,12.53
2023-02-07T17:18:20.907Z,7.60
2023-02-07T17:20:49.989Z,7.70
2023-02-07T17:23:21.747Z,11.07
2023-02-07T17:25:50.385Z,9.87
2023-02-07T17:28:18.439Z,12.63
2023-02-07T17:30:46.975Z,11.40
2023-02-07T17:33:17.855Z,10.50
2023-02-07T17:35:47.230Z,8.73
2023-02-07T17:38:15.467Z,8.73
2023-02-07T17:40:43.639Z,13.73
2023-02-07T17:43:11.650Z,8.10
2023-02-07T17:45:39.829Z,10.43
2023-02-07T17:48:07.964Z,9.53
2023-02-07T17:50:41.696Z,10.03
2023-02-07T17:53:11.804Z,10.03
2023-02-07T17:55:40.551Z,9.10
2023-02-07T17:58:12.368Z,9.87
2023-02-07T18:00:41.341Z,10.13
2023-02-07T18:03:09.775Z,8.70
2023-02-07T18:05:40.333Z,10.10
2023-02-07T18:08:08.501Z,10.87
2023-02-07T18:10:42.099Z,7.10
2023-02-07T18:13:11.612Z,11.07
2023-02-07T18:15:41.001Z,9.47
2023-02-07T18:18:12.871Z,10.60
2023-02-07T18:20:41.983Z,10.93
2023-02-07T18:23:13.366Z,11.33
2023-02-07T18:25:49.549Z,10.90
2023-02-07T18:28:17.926Z,13.70
2023-02-07T18:30:46.237Z,11.03
2023-02-07T18:33:17.011Z,10.40
2023-02-07T18:35:45.592Z,13.23
2023-02-07T18:38:13.921Z,9.17
2023-02-07T18:40:44.283Z,10.67
2023-02-07T18:43:12.396Z,12.30
2023-02-07T18:45:43.376Z,13.40
2023-02-07T18:48:11.460Z,9.43
2023-02-07T18:50:43.740Z,11.47
2023-02-07T18:53:14.737Z,10.20
2023-02-07T18:55:45.677Z,12.63
2023-02-07T18:58:13.777Z,16.27
2023-02-07T19:00:44.150Z,14.90
2023-02-07T19:03:12.589Z,14.33
2023-02-07T19:05:41.100Z,14.70
2023-02-07T19:08:09.758Z,12.43
2023-02-07T19:10:38.123Z,15.40
2023-02-07T19:13:08.214Z,14.53
2023-02-07T19:15:36.509Z,14.73
2023-02-07T19:18:05.656Z,12.07
2023-02-07T19:20:55.781Z,17.80
2023-02-07T19:23:23.788Z,16.03
2023-02-07T19:25:51.796Z,12.93
2023-02-07T19:28:21.600Z,15.50
2023-02-07T19:30:49.775Z,14.60
2023-02-07T19:33:18.187Z,14.00
2023-02-07T19:35:46.627Z,14.00
2023-02-07T19:38:15.901Z,20.13
2023-02-07T19:40:44.588Z,14.40
2023-02-07T19:43:13.230Z,17.97
2023-02-07T19:45:48.758Z,20.60
2023-02-07T19:48:17.380Z,17.20
2023-02-07T19:50:45.871Z,17.70
2023-02-07T19:53:16.891Z,15.50
2023-02-07T19:55:45.065Z,21.13
2023-02-07T19:58:13.068Z,20.80
2023-02-07T20:00:45.971Z,18.47
2023-02-07T20:03:13.979Z,19.60
2023-02-07T20:05:45.353Z,18.30
2023-02-07T20:08:13.889Z,18.77
2023-02-07T20:10:43.633Z,20.23
2023-02-07T20:13:11.836Z,18.63
2023-02-07T20:15:42.218Z,20.40
2023-02-07T20:18:11.092Z,15.97
2023-02-07T20:20:42.133Z,19.20
2023-02-07T20:23:11.930Z,19.60
2023-02-07T20:25:40.518Z,19.43
2023-02-07T20:28:10.001Z,18.47
2023-02-07T20:30:46.495Z,21.53
2023-02-07T20:33:14.710Z,21.20
2023-02-07T20:35:42.895Z,17.80
2023-02-07T20:38:12.111Z,17.33
2023-02-07T20:40:40.649Z,19.50
2023-02-07T20:43:09.097Z,19.50
2023-02-07T20:45:37.522Z,18.53
2023-02-07T20:48:07.302Z,19.73
2023-02-07T20:50:36.297Z,14.57
2023-02-07T20:53:05.495Z,20.50
2023-02-07T20:55:36.435Z,15.60
2023-02-07T20:58:05.362Z,18.23
2023-02-07T21:00:33.438Z,16.87
2023-02-07T21:03:01.469Z,17.40
2023-02-07T21:05:33.373Z,20.93
2023-02-07T21:08:01.410Z,17.60
2023-02-07T21:10:30.144Z,17.77
2023-02-07T21:13:02.229Z,20.23
2023-02-07T21:15:30.473Z,18.80
2023-02-07T21:17:59.667Z,18.10
2023-02-07T21:20:28.930Z,22.07
2023-02-07T21:22:58.307Z,25.63
2023-02-07T21:25:26.962Z,19.63
2023-02-07T21:27:55.426Z,17.00
2023-02-07T21:30:23.515Z,21.57
2023-02-07T21:32:52.885Z,18.23
2023-02-07T21:35:21.576Z,16.43
2023-02-07T21:37:50.863Z,19.73
2023-02-07T21:40:20.421Z,18.83
2023-02-07T21:42:49.600Z,20.00
2023-02-07T21:45:19.681Z,19.33
2023-02-07T21:47:49.572Z,18.40
2023-02-07T21:50:17.924Z,20.77
2023-02-07T21:52:46.188Z,15.53
2023-02-07T21:55:14.641Z,18.40
2023-02-07T21:57:45.222Z,18.90
2023-02-07T22:00:15.399Z,21.03
2023-02-07T22:02:43.522Z,14.17
2023-02-07T22:05:11.497Z,20.60
2023-02-07T22:07:40.749Z,15.43
2023-02-07T22:10:09.277Z,25.10
2023-02-07T22:12:37.702Z,17.23
2023-02-07T22:15:08.069Z,16.00
2023-02-07T22:17:36.109Z,15.50
2023-02-07T22:20:04.778Z,22.23
2023-02-07T22:22:32.955Z,19.80
2023-02-07T22:25:01.297Z,22.07
2023-02-07T22:27:29.843Z,18.23
2023-02-07T22:29:57.905Z,20.90
2023-02-07T22:32:27.809Z,15.90
2023-02-07T22:34:56.257Z,17.73
2023-02-07T22:37:24.313Z,22.97
2023-02-07T22:39:54.100Z,21.73
2023-02-07T22:42:22.965Z,18.17
2023-02-07T22:44:51.166Z,19.43
2023-02-07T22:47:19.443Z,19.37
2023-02-07T22:49:49.607Z,16.33
2023-02-07T22:52:17.665Z,22.67
2023-02-07T22:54:45.645Z,16.90
2023-02-07T22:57:16.153Z,18.33
2023-02-07T22:59:44.194Z,18.30
2023-02-07T23:02:12.837Z,19.30
2023-02-07T23:04:40.949Z,19.57
2023-02-07T23:07:10.342Z,22.40
2023-02-07T23:09:40.797Z,26.63
2023-02-07T23:12:09.047Z,29.80
2023-02-07T23:14:37.540Z,29.13
2023-02-07T23:17:07.026Z,21.13
2023-02-07T23:19:35.342Z,23.97
2023-02-07T23:22:03.396Z,18.77
2023-02-07T23:24:34.164Z,19.37
2023-02-07T23:27:02.296Z,17.70
2023-02-07T23:29:30.886Z,23.37
2023-02-07T23:32:01.156Z,20.73
2023-02-07T23:34:29.253Z,17.47
2023-02-07T23:36:57.317Z,20.23
2023-02-07T23:39:26.753Z,17.10
2023-02-07T23:41:57.941Z,18.63
2023-02-07T23:44:28.008Z,17.33
2023-02-07T23:46:56.235Z,15.73
2023-02-07T23:49:24.266Z,17.37
2023-02-07T23:51:53.305Z,18.20
2023-02-07T23:54:22.114Z,19.97
2023-02-07T23:56:51.458Z,19.17
2023-02-07T23:59:20.866Z,20.07
